Time,TemperatureF,DewpointF,PressureIn,WindDirection,WindDirectionDegrees,WindSpeedMPH,WindSpeedGustMPH,Humidity,HourlyPrecipIn,Conditions,Clouds,dailyrainin,SolarRadiationWatts/m^2,SoftwareType,DateUTC
2013-02-06 00:00:00,40.0,31.7,29.88,SSW,202,0.0,0.0,72,0.00,,,0.00,0,WeatherTracker,2013-02-06 05:00:00,
2013-02-06 00:01:00,40.0,31.7,29.88,SSW,202,0.0,0.0,72,0.00,,,0.00,0,WeatherTracker,2013-02-06 05:01:00,
2013-02-06 00:06:00,40.0,31.7,29.88,SSW,202,0.0,0.0,72,0.00,,,0.00,0,WeatherTracker,2013-02-06 05:06:00,
2013-02-06 00:11:00,40.0,31.7,29.88,SSW,202,1.0,0.0,72,0.00,,,0.00,0,WeatherTracker,2013-02-06 05:11:00,
2013-02-06 00:16:00,40.0,31.7,29.88,ESE,106,0.0,0.0,72,0.00,,,0.00,0,WeatherTracker,2013-02-06 05:16:00,
2013-02-06 00:21:00,40.0,31.7,29.88,ESE,107,0.0,0.0,72,0.00,,,0.00,0,WeatherTracker,2013-02-06 05:21:00,
2013-02-06 00:26:00,40.1,31.8,29.88,ESE,106,0.0,0.0,72,0.00,,,0.00,0,WeatherTracker,2013-02-06 05:26:00,
2013-02-06 00:31:00,40.3,32.0,29.88,ESE,106,0.0,0.0,72,0.00,,,0.00,0,WeatherTracker,2013-02-06 05:31:00,
2013-02-06 00:36:00,40.4,32.1,29.88,ESE,107,0.0,0.0,72,0.00,,,0.00,0,WeatherTracker,2013-02-06 05:36:00,
2013-02-06 00:41:00,40.5,32.2,29.88,ESE,107,1.0,0.0,72,0.00,,,0.00,0,WeatherTracker,2013-02-06 05:41:00,
2013-02-06 00:46:00,40.7,32.4,29.88,ESE,106,0.0,0.0,72,0.00,,,0.00,0,WeatherTracker,2013-02-06 05:46:00,
2013-02-06 00:51:00,40.8,32.5,29.87,ESE,111,0.0,0.0,72,0.00,,,0.00,0,WeatherTracker,2013-02-06 05:51:00,
2013-02-06 00:56:00,40.9,32.6,29.88,ESE,112,0.0,0.0,72,0.00,,,0.00,0,WeatherTracker,2013-02-06 05:56:00,
2013-02-06 01:01:00,40.9,32.6,29.88,ESE,111,0.0,0.0,72,0.00,,,0.00,0,WeatherTracker,2013-02-06 06:01:00,
2013-02-06 01:06:00,41.0,32.7,29.88,ESE,112,2.0,0.0,72,0.00,,,0.00,0,WeatherTracker,2013-02-06 06:06:00,
2013-02-06 01:11:00,41.2,32.9,29.88,ESE,112,1.0,0.0,72,0.00,,,0.00,0,WeatherTracker,2013-02-06 06:11:00,
2013-02-06 01:17:00,41.3,32.6,29.88,ESE,112,0.0,0.0,71,0.00,,,0.00,0,WeatherTracker,2013-02-06 06:17:00,
2013-02-06 01:22:00,41.3,32.6,29.88,ESE,112,0.0,0.0,71,0.00,,,0.00,0,WeatherTracker,2013-02-06 06:22:00,
2013-02-06 01:27:00,41.2,32.9,29.88,SE,133,0.0,0.0,72,0.00,,,0.00,0,WeatherTracker,2013-02-06 06:27:00,
2013-02-06 01:32:00,41.2,32.9,29.88,SSE,153,0.0,0.0,72,0.00,,,0.00,0,WeatherTracker,2013-02-06 06:32:00,
2013-02-06 01:37:00,41.3,33.0,29.87,WSW,245,0.0,0.0,72,0.00,,,0.00,0,WeatherTracker,2013-02-06 06:37:00,
2013-02-06 01:42:00,41.3,33.0,29.87,WSW,252,0.0,0.0,72,0.00,,,0.00,0,WeatherTracker,2013-02-06 06:42:00,
2013-02-06 01:47:00,41.3,33.3,29.88,WSW,252,0.0,0.0,73,0.00,,,0.00,0,WeatherTracker,2013-02-06 06:47:00,
2013-02-06 01:52:00,41.2,33.2,29.88,West,261,0.0,0.0,73,0.00,,,0.00,0,WeatherTracker,2013-02-06 06:52:00,
2013-02-06 01:57:00,41.3,33.3,29.88,WNW,290,3.0,0.0,73,0.00,,,0.00,0,WeatherTracker,2013-02-06 06:57:00,
2013-02-06 02:02:00,41.2,33.2,29.87,SSE,160,1.0,0.0,73,0.00,,,0.00,0,WeatherTracker,2013-02-06 07:02:00,
2013-02-06 02:07:00,41.1,33.1,29.87,South,184,0.0,0.0,73,0.00,,,0.00,0,WeatherTracker,2013-02-06 07:07:00,
2013-02-06 02:12:00,40.9,32.9,29.87,West,262,0.0,0.0,73,0.00,,,0.00,0,WeatherTracker,2013-02-06 07:12:00,
2013-02-06 02:17:00,40.6,33.0,29.87,West,262,0.0,0.0,74,0.00,,,0.00,0,WeatherTracker,2013-02-06 07:17:00,
2013-02-06 02:22:00,40.7,33.4,29.87,SSE,151,0.0,0.0,75,0.00,,,0.00,0,WeatherTracker,2013-02-06 07:22:00,
2013-02-06 02:27:00,41.0,33.4,29.87,SE,126,0.0,0.0,74,0.00,,,0.00,0,WeatherTracker,2013-02-06 07:27:00,
2013-02-06 02:32:00,40.8,33.2,29.87,SE,126,0.0,0.0,74,0.00,,,0.00,0,WeatherTracker,2013-02-06 07:32:00,
2013-02-06 02:37:00,40.4,32.8,29.88,SE,126,0.0,0.0,74,0.00,,,0.00,0,WeatherTracker,2013-02-06 07:37:00,
2013-02-06 02:42:00,40.0,33.1,29.87,SE,126,0.0,0.0,76,0.00,,,0.00,0,WeatherTracker,2013-02-06 07:42:00,
2013-02-06 02:47:00,39.6,32.7,29.88,SE,126,0.0,0.0,76,0.00,,,0.00,0,WeatherTracker,2013-02-06 07:47:00,
2013-02-06 02:52:00,39.3,32.7,29.88,SE,126,1.0,0.0,77,0.00,,,0.00,0,WeatherTracker,2013-02-06 07:52:00,
2013-02-06 02:57:00,39.1,32.8,29.88,SE,126,0.0,0.0,78,0.00,,,0.00,0,WeatherTracker,2013-02-06 07:57:00,
2013-02-06 03:03:00,38.8,32.5,29.88,SE,126,0.0,0.0,78,0.00,,,0.00,0,WeatherTracker,2013-02-06 08:03:00,
2013-02-06 03:08:00,38.5,32.2,29.88,SE,126,0.0,0.0,78,0.00,,,0.00,0,WeatherTracker,2013-02-06 08:08:00,
2013-02-06 03:13:00,38.0,32.1,29.88,SE,126,0.0,0.0,79,0.00,,,0.00,0,WeatherTracker,2013-02-06 08:13:00,
2013-02-06 03:18:00,37.4,32.1,29.88,SE,126,0.0,0.0,81,0.00,,,0.00,0,WeatherTracker,2013-02-06 08:18:00,
2013-02-06 03:23:00,37.1,31.8,29.89,SE,126,0.0,0.0,81,0.00,,,0.00,0,WeatherTracker,2013-02-06 08:23:00,
2013-02-06 03:28:00,36.9,31.6,29.89,SE,126,0.0,0.0,81,0.00,,,0.00,0,WeatherTracker,2013-02-06 08:28:00,
2013-02-06 03:33:00,36.8,31.8,29.89,SE,126,0.0,0.0,82,0.00,,,0.00,0,WeatherTracker,2013-02-06 08:33:00,
2013-02-06 03:38:00,36.7,32.0,29.89,SE,126,0.0,0.0,83,0.00,,,0.00,0,WeatherTracker,2013-02-06 08:38:00,
2013-02-06 03:43:00,36.6,31.6,29.89,SE,126,0.0,0.0,82,0.00,,,0.00,0,WeatherTracker,2013-02-06 08:43:00,
2013-02-06 03:48:00,36.5,31.8,29.89,SE,126,0.0,0.0,83,0.00,,,0.00,0,WeatherTracker,2013-02-06 08:48:00,
2013-02-06 03:53:00,36.3,31.6,29.89,SE,126,0.0,0.0,83,0.00,,,0.00,0,WeatherTracker,2013-02-06 08:53:00,
2013-02-06 03:58:00,35.9,31.2,29.89,SE,126,0.0,0.0,83,0.00,,,0.00,0,WeatherTracker,2013-02-06 08:58:00,
2013-02-06 04:03:00,35.5,30.9,29.90,SE,126,0.0,0.0,83,0.00,,,0.00,0,WeatherTracker,2013-02-06 09:03:00,
2013-02-06 04:08:00,34.7,30.4,29.90,SE,126,0.0,0.0,84,0.00,,,0.00,0,WeatherTracker,2013-02-06 09:08:00,
2013-02-06 04:13:00,34.2,29.9,29.90,SE,126,0.0,0.0,84,0.00,,,0.00,0,WeatherTracker,2013-02-06 09:13:00,
2013-02-06 04:18:00,33.7,29.7,29.91,SE,126,0.0,0.0,85,0.00,,,0.00,0,WeatherTracker,2013-02-06 09:18:00,
2013-02-06 04:24:00,33.5,29.8,29.91,SE,126,0.0,0.0,86,0.00,,,0.00,0,WeatherTracker,2013-02-06 09:24:00,
2013-02-06 04:29:00,33.2,29.5,29.91,SE,126,0.0,0.0,86,0.00,,,0.00,0,WeatherTracker,2013-02-06 09:29:00,
2013-02-06 04:34:00,33.2,29.8,29.91,SE,126,0.0,0.0,87,0.00,,,0.00,0,WeatherTracker,2013-02-06 09:34:00,
2013-02-06 04:39:00,33.2,29.8,29.91,SE,126,0.0,0.0,87,0.00,,,0.00,0,WeatherTracker,2013-02-06 09:39:00,
2013-02-06 04:44:00,33.1,29.7,29.91,SE,126,0.0,0.0,87,0.00,,,0.00,0,WeatherTracker,2013-02-06 09:44:00,
2013-02-06 04:49:00,33.0,29.6,29.91,SE,126,0.0,0.0,87,0.00,,,0.00,0,WeatherTracker,2013-02-06 09:49:00,
2013-02-06 04:54:00,32.9,29.7,29.92,SE,126,0.0,0.0,88,0.00,,,0.00,0,WeatherTracker,2013-02-06 09:54:00,
2013-02-06 04:59:00,32.9,29.7,29.92,SE,126,0.0,0.0,88,0.00,,,0.00,0,WeatherTracker,2013-02-06 09:59:00,
2013-02-06 05:04:00,32.9,29.7,29.92,SE,126,0.0,0.0,88,0.00,,,0.00,0,WeatherTracker,2013-02-06 10:04:00,
2013-02-06 05:09:00,32.9,29.7,29.92,SE,126,0.0,0.0,88,0.00,,,0.00,0,WeatherTracker,2013-02-06 10:09:00,
2013-02-06 05:14:00,33.0,29.8,29.92,SE,126,0.0,0.0,88,0.00,,,0.00,0,WeatherTracker,2013-02-06 10:14:00,
2013-02-06 05:19:00,32.9,29.7,29.92,SE,126,0.0,0.0,88,0.00,,,0.00,0,WeatherTracker,2013-02-06 10:19:00,
2013-02-06 05:24:00,32.8,29.6,29.92,SE,126,0.0,0.0,88,0.00,,,0.00,0,WeatherTracker,2013-02-06 10:24:00,
2013-02-06 05:29:00,32.8,29.6,29.93,SE,126,0.0,0.0,88,0.00,,,0.00,0,WeatherTracker,2013-02-06 10:29:00,
2013-02-06 05:34:00,32.8,29.9,29.93,SE,126,0.0,0.0,89,0.00,,,0.00,0,WeatherTracker,2013-02-06 10:34:00,
2013-02-06 05:39:00,33.0,29.8,29.93,SE,127,0.0,0.0,88,0.00,,,0.00,0,WeatherTracker,2013-02-06 10:39:00,
2013-02-06 05:44:00,33.1,29.9,29.93,SE,126,0.0,0.0,88,0.00,,,0.00,0,WeatherTracker,2013-02-06 10:44:00,
2013-02-06 05:49:00,32.9,29.7,29.94,SE,126,0.0,0.0,88,0.00,,,0.00,0,WeatherTracker,2013-02-06 10:49:00,
2013-02-06 05:54:00,32.8,29.6,29.94,SE,126,0.0,0.0,88,0.00,,,0.00,0,WeatherTracker,2013-02-06 10:54:00,
2013-02-06 05:59:00,32.8,29.6,29.94,SE,126,0.0,0.0,88,0.00,,,0.00,0,WeatherTracker,2013-02-06 10:59:00,
2013-02-06 06:04:00,32.7,29.5,29.94,SE,126,0.0,0.0,88,0.00,,,0.00,0,WeatherTracker,2013-02-06 11:04:00,
2013-02-06 06:09:00,32.5,29.3,29.95,SE,126,0.0,0.0,88,0.00,,,0.00,0,WeatherTracker,2013-02-06 11:09:00,
2013-02-06 06:15:00,32.3,29.4,29.95,SE,126,0.0,0.0,89,0.00,,,0.00,0,WeatherTracker,2013-02-06 11:15:00,
2013-02-06 06:20:00,32.1,29.0,29.96,SE,126,0.0,0.0,88,0.00,,,0.00,0,WeatherTracker,2013-02-06 11:20:00,
2013-02-06 06:25:00,31.7,28.6,29.95,SE,126,0.0,0.0,88,0.00,,,0.00,0,WeatherTracker,2013-02-06 11:25:00,
2013-02-06 06:30:00,31.6,28.7,29.96,SE,126,0.0,0.0,89,0.00,,,0.00,0,WeatherTracker,2013-02-06 11:30:00,
2013-02-06 06:35:00,31.4,28.3,29.96,SE,126,0.0,0.0,88,0.00,,,0.00,0,WeatherTracker,2013-02-06 11:35:00,
2013-02-06 06:40:00,31.3,28.4,29.97,SE,126,0.0,0.0,89,0.00,,,0.00,0,WeatherTracker,2013-02-06 11:40:00,
2013-02-06 06:45:00,31.2,28.3,29.97,SE,126,0.0,0.0,89,0.00,,,0.00,0,WeatherTracker,2013-02-06 11:45:00,
2013-02-06 06:50:00,31.3,28.4,29.97,SE,126,0.0,0.0,89,0.00,,,0.00,0,WeatherTracker,2013-02-06 11:50:00,
2013-02-06 06:55:00,31.4,28.5,29.97,SE,127,0.0,0.0,89,0.00,,,0.00,0,WeatherTracker,2013-02-06 11:55:00,
2013-02-06 07:00:00,31.4,28.5,29.98,SE,126,0.0,0.0,89,0.00,,,0.00,0,WeatherTracker,2013-02-06 12:00:00,
2013-02-06 07:05:00,31.2,28.3,29.98,SE,126,0.0,0.0,89,0.00,,,0.00,0,WeatherTracker,2013-02-06 12:05:00,
2013-02-06 07:10:00,31.2,28.3,29.98,SE,126,0.0,0.0,89,0.00,,,0.00,0,WeatherTracker,2013-02-06 12:10:00,
2013-02-06 07:15:00,31.3,28.4,29.98,SE,126,0.0,0.0,89,0.00,,,0.00,0,WeatherTracker,2013-02-06 12:15:00,
2013-02-06 07:20:00,31.5,28.6,29.98,SE,126,0.0,0.0,89,0.00,,,0.00,0,WeatherTracker,2013-02-06 12:20:00,
2013-02-06 07:25:00,31.7,28.8,29.98,SE,126,0.0,0.0,89,0.00,,,0.00,0,WeatherTracker,2013-02-06 12:25:00,
2013-02-06 07:30:00,31.7,28.8,29.99,SE,127,0.0,0.0,89,0.00,,,0.00,5,WeatherTracker,2013-02-06 12:30:00,
2013-02-06 07:35:00,31.9,29.0,29.99,SE,126,0.0,0.0,89,0.00,,,0.00,5,WeatherTracker,2013-02-06 12:35:00,
2013-02-06 07:40:00,32.0,28.9,30.00,SE,127,0.0,0.0,88,0.00,,,0.00,7,WeatherTracker,2013-02-06 12:40:00,
2013-02-06 07:45:00,32.1,29.0,30.00,SE,126,0.0,0.0,88,0.00,,,0.00,9,WeatherTracker,2013-02-06 12:45:00,
2013-02-06 07:51:00,32.0,28.9,30.00,SE,127,0.0,0.0,88,0.00,,,0.00,11,WeatherTracker,2013-02-06 12:51:00,
2013-02-06 07:56:00,31.9,28.5,30.00,SE,126,0.0,0.0,87,0.00,,,0.00,11,WeatherTracker,2013-02-06 12:56:00,
2013-02-06 08:01:00,31.9,28.8,30.00,SE,126,0.0,0.0,88,0.00,,,0.00,19,WeatherTracker,2013-02-06 13:01:00,
2013-02-06 08:06:00,32.0,28.9,30.00,SE,126,0.0,0.0,88,0.00,,,0.00,19,WeatherTracker,2013-02-06 13:06:00,
2013-02-06 08:11:00,32.1,29.0,30.00,SE,126,0.0,0.0,88,0.00,,,0.00,21,WeatherTracker,2013-02-06 13:11:00,
2013-02-06 08:16:00,32.3,29.2,30.01,SE,126,0.0,0.0,88,0.00,,,0.00,23,WeatherTracker,2013-02-06 13:16:00,
2013-02-06 08:21:00,32.5,29.3,30.01,SE,126,0.0,0.0,88,0.00,,,0.00,23,WeatherTracker,2013-02-06 13:21:00,
2013-02-06 08:26:00,32.7,29.8,30.00,SE,125,0.0,0.0,89,0.00,,,0.00,32,WeatherTracker,2013-02-06 13:26:00,
2013-02-06 08:31:00,33.2,30.3,30.00,SE,125,0.0,0.0,89,0.00,,,0.00,42,WeatherTracker,2013-02-06 13:31:00,
2013-02-06 08:36:00,33.7,30.5,30.01,SE,127,0.0,0.0,88,0.00,,,0.00,30,WeatherTracker,2013-02-06 13:36:00,
2013-02-06 08:41:00,34.2,31.3,30.01,SE,129,0.0,0.0,89,0.00,,,0.00,65,WeatherTracker,2013-02-06 13:41:00,
2013-02-06 08:46:00,34.6,31.7,30.01,SE,129,0.0,0.0,89,0.00,,,0.00,83,WeatherTracker,2013-02-06 13:46:00,
2013-02-06 08:51:00,35.3,31.5,30.01,SE,129,0.0,0.0,86,0.00,,,0.00,69,WeatherTracker,2013-02-06 13:51:00,
2013-02-06 08:56:00,36.1,32.0,30.01,SE,129,0.0,0.0,85,0.00,,,0.00,67,WeatherTracker,2013-02-06 13:56:00,
2013-02-06 09:01:00,37.0,32.3,30.01,SE,129,0.0,0.0,83,0.00,,,0.00,83,WeatherTracker,2013-02-06 14:01:00,
2013-02-06 09:06:00,37.8,32.2,30.01,SE,129,0.0,0.0,80,0.00,,,0.00,153,WeatherTracker,2013-02-06 14:06:00,
2013-02-06 09:11:00,38.7,32.1,30.02,ENE,67,0.0,0.0,77,0.00,,,0.00,155,WeatherTracker,2013-02-06 14:11:00,
2013-02-06 09:16:00,39.5,31.9,30.02,North,5,0.0,0.0,74,0.00,,,0.00,109,WeatherTracker,2013-02-06 14:16:00,
2013-02-06 09:21:00,40.3,32.3,30.02,NE,55,0.0,0.0,73,0.00,,,0.00,299,WeatherTracker,2013-02-06 14:21:00,
2013-02-06 09:26:00,41.2,32.5,30.02,NE,51,0.0,0.0,71,0.00,,,0.00,336,WeatherTracker,2013-02-06 14:26:00,
2013-02-06 09:31:00,42.2,32.8,30.02,East,81,0.0,0.0,69,0.00,,,0.00,336,WeatherTracker,2013-02-06 14:31:00,
2013-02-06 09:37:00,42.9,32.7,30.02,East,86,0.0,0.0,67,0.00,,,0.00,237,WeatherTracker,2013-02-06 14:37:00,
2013-02-06 09:42:00,43.0,32.4,30.02,NNW,346,4.0,0.0,66,0.00,,,0.00,118,WeatherTracker,2013-02-06 14:42:00,
2013-02-06 09:47:00,42.9,32.3,30.02,East,89,4.0,0.0,66,0.00,,,0.00,76,WeatherTracker,2013-02-06 14:47:00,
2013-02-06 09:52:00,42.9,32.3,30.02,East,88,1.0,0.0,66,0.00,,,0.00,100,WeatherTracker,2013-02-06 14:52:00,
2013-02-06 09:57:00,42.8,32.2,30.02,North,10,0.0,0.0,66,0.00,,,0.00,91,WeatherTracker,2013-02-06 14:57:00,
2013-02-06 10:02:00,42.8,32.2,30.03,NNW,330,1.0,0.0,66,0.00,,,0.00,218,WeatherTracker,2013-02-06 15:02:00,
2013-02-06 10:07:00,43.1,32.5,30.03,East,94,1.0,0.0,66,0.00,,,0.00,281,WeatherTracker,2013-02-06 15:07:00,
2013-02-06 10:12:00,43.4,32.4,30.03,ENE,69,2.0,0.0,65,0.00,,,0.00,255,WeatherTracker,2013-02-06 15:12:00,
2013-02-06 10:17:00,43.8,32.4,30.03,East,96,2.0,0.0,64,0.00,,,0.00,79,WeatherTracker,2013-02-06 15:17:00,
2013-02-06 10:22:00,44.0,32.2,30.03,East,80,2.0,0.0,63,0.00,,,0.00,424,WeatherTracker,2013-02-06 15:22:00,
2013-02-06 10:27:00,44.2,32.4,30.04,North,355,2.0,0.0,63,0.00,,,0.00,141,WeatherTracker,2013-02-06 15:27:00,
2013-02-06 10:32:00,44.5,32.3,30.04,West,281,0.0,0.0,62,0.00,,,0.00,466,WeatherTracker,2013-02-06 15:32:00,
2013-02-06 10:37:00,45.0,32.8,30.04,WNW,286,2.0,0.0,62,0.00,,,0.00,459,WeatherTracker,2013-02-06 15:37:00,
2013-02-06 10:42:00,45.5,33.2,30.04,South,182,0.0,0.0,62,0.00,,,0.00,492,WeatherTracker,2013-02-06 15:42:00,
2013-02-06 10:47:00,46.1,32.6,30.04,NW,323,1.0,0.0,59,0.00,,,0.00,522,WeatherTracker,2013-02-06 15:47:00,
2013-02-06 10:52:00,46.1,32.2,30.04,ESE,118,0.0,0.0,58,0.00,,,0.00,399,WeatherTracker,2013-02-06 15:52:00,
2013-02-06 10:58:00,46.4,32.9,30.04,ENE,64,0.0,0.0,59,0.00,,,0.00,591,WeatherTracker,2013-02-06 15:58:00,
2013-02-06 11:03:00,47.0,33.0,30.04,NE,54,0.0,0.0,58,0.00,,,0.00,601,WeatherTracker,2013-02-06 16:03:00,
2013-02-06 11:08:00,47.6,33.1,30.04,ENE,57,2.0,0.0,57,0.00,,,0.00,543,WeatherTracker,2013-02-06 16:08:00,
2013-02-06 11:13:00,47.7,31.4,30.04,East,82,0.0,0.0,53,0.00,,,0.00,448,WeatherTracker,2013-02-06 16:13:00,
2013-02-06 11:18:00,47.9,31.1,30.04,East,95,0.0,0.0,52,0.00,,,0.00,445,WeatherTracker,2013-02-06 16:18:00,
2013-02-06 11:23:00,48.3,31.0,30.04,NE,49,0.0,0.0,51,0.00,,,0.00,503,WeatherTracker,2013-02-06 16:23:00,
2013-02-06 11:28:00,48.6,31.8,30.04,NNW,340,0.0,0.0,52,0.00,,,0.00,601,WeatherTracker,2013-02-06 16:28:00,
2013-02-06 11:33:00,48.9,31.6,30.05,North,9,2.0,0.0,51,0.00,,,0.00,415,WeatherTracker,2013-02-06 16:33:00,
2013-02-06 11:38:00,49.2,31.9,30.04,NNW,341,1.0,0.0,51,0.00,,,0.00,522,WeatherTracker,2013-02-06 16:38:00,
2013-02-06 11:43:00,49.9,32.5,30.04,ENE,60,3.0,0.0,51,0.00,,,0.00,596,WeatherTracker,2013-02-06 16:43:00,
2013-02-06 11:48:00,50.4,32.5,30.04,ESE,103,1.0,0.0,50,0.00,,,0.00,664,WeatherTracker,2013-02-06 16:48:00,
2013-02-06 11:53:00,51.2,32.7,30.04,ESE,103,1.0,0.0,49,0.00,,,0.00,670,WeatherTracker,2013-02-06 16:53:00,
2013-02-06 11:58:00,51.9,34.3,30.04,ESE,106,2.0,0.0,51,0.00,,,0.00,673,WeatherTracker,2013-02-06 16:58:00,
2013-02-06 12:03:00,52.4,32.2,30.04,NNE,33,0.0,0.0,46,0.00,,,0.00,677,WeatherTracker,2013-02-06 17:03:00,
2013-02-06 12:08:00,52.4,32.2,30.03,NNW,335,3.0,0.0,46,0.00,,,0.00,679,WeatherTracker,2013-02-06 17:08:00,
2013-02-06 12:13:00,52.3,32.1,30.03,NW,316,1.0,0.0,46,0.00,,,0.00,598,WeatherTracker,2013-02-06 17:13:00,
2013-02-06 12:18:00,52.2,31.5,30.03,ENE,76,0.0,0.0,45,0.00,,,0.00,550,WeatherTracker,2013-02-06 17:18:00,
2013-02-06 12:23:00,52.4,32.2,30.03,SSE,159,2.0,0.0,46,0.00,,,0.00,638,WeatherTracker,2013-02-06 17:23:00,
2013-02-06 12:29:00,53.0,32.2,30.02,SE,132,1.0,0.0,45,0.00,,,0.00,527,WeatherTracker,2013-02-06 17:29:00,
2013-02-06 12:34:00,53.2,31.9,30.02,ENE,72,0.0,0.0,44,0.00,,,0.00,573,WeatherTracker,2013-02-06 17:34:00,
2013-02-06 12:39:00,53.1,32.3,30.02,SSE,147,0.0,0.0,45,0.00,,,0.00,566,WeatherTracker,2013-02-06 17:39:00,
2013-02-06 12:44:00,53.5,32.1,30.01,ESE,105,2.0,0.0,44,0.00,,,0.00,496,WeatherTracker,2013-02-06 17:44:00,
2013-02-06 12:49:00,54.1,31.5,30.01,South,173,0.0,0.0,42,0.00,,,0.00,320,WeatherTracker,2013-02-06 17:49:00,
2013-02-06 12:54:00,54.4,32.4,30.01,SSW,211,0.0,0.0,43,0.00,,,0.00,388,WeatherTracker,2013-02-06 17:54:00,
2013-02-06 12:59:00,54.8,32.2,30.01,North,360,1.0,0.0,42,0.00,,,0.00,308,WeatherTracker,2013-02-06 17:59:00,
2013-02-06 13:04:00,54.4,31.8,30.01,SE,126,1.0,0.0,42,0.00,,,0.00,543,WeatherTracker,2013-02-06 18:04:00,
2013-02-06 13:09:00,54.3,31.7,30.01,NNW,337,0.0,0.0,42,0.00,,,0.00,229,WeatherTracker,2013-02-06 18:09:00,
2013-02-06 13:14:00,54.3,31.7,30.00,ENE,65,2.0,0.0,42,0.00,,,0.00,408,WeatherTracker,2013-02-06 18:14:00,
2013-02-06 13:19:00,54.2,31.6,30.00,NNE,24,1.0,0.0,42,0.00,,,0.00,541,WeatherTracker,2013-02-06 18:19:00,
2013-02-06 13:24:00,54.4,31.8,30.00,West,275,2.0,0.0,42,0.00,,,0.00,496,WeatherTracker,2013-02-06 18:24:00,
2013-02-06 13:29:00,55.0,31.7,30.00,WNW,296,2.0,0.0,41,0.00,,,0.00,478,WeatherTracker,2013-02-06 18:29:00,
2013-02-06 13:34:00,55.5,31.6,30.00,NNE,26,2.0,0.0,40,0.00,,,0.00,411,WeatherTracker,2013-02-06 18:34:00,
2013-02-06 13:39:00,55.3,28.8,30.00,WNW,300,0.0,0.0,36,0.00,,,0.00,387,WeatherTracker,2013-02-06 18:39:00,
2013-02-06 13:44:00,55.4,26.8,29.99,ESE,114,0.0,0.0,33,0.00,,,0.00,327,WeatherTracker,2013-02-06 18:44:00,
2013-02-06 13:49:00,55.6,28.4,29.99,SW,217,0.0,0.0,35,0.00,,,0.00,79,WeatherTracker,2013-02-06 18:49:00,
2013-02-06 13:55:00,55.9,27.9,29.99,NW,315,2.0,0.0,34,0.00,,,0.00,480,WeatherTracker,2013-02-06 18:55:00,
2013-02-06 14:00:00,56.4,28.4,29.99,WSW,240,1.0,0.0,34,0.00,,,0.00,568,WeatherTracker,2013-02-06 19:00:00,
2013-02-06 14:05:00,56.6,27.8,29.99,North,360,0.0,0.0,33,0.00,,,0.00,230,WeatherTracker,2013-02-06 19:05:00,
2013-02-06 14:10:00,57.0,28.2,29.99,South,177,0.0,0.0,33,0.00,,,0.00,473,WeatherTracker,2013-02-06 19:10:00,
2013-02-06 14:15:00,57.2,28.4,29.99,West,281,0.0,0.0,33,0.00,,,0.00,499,WeatherTracker,2013-02-06 19:15:00,
2013-02-06 14:20:00,56.9,27.4,29.98,South,172,1.0,0.0,32,0.00,,,0.00,350,WeatherTracker,2013-02-06 19:20:00,
2013-02-06 14:25:00,57.1,28.3,29.98,SW,219,0.0,0.0,33,0.00,,,0.00,482,WeatherTracker,2013-02-06 19:25:00,
2013-02-06 14:30:00,57.7,28.8,29.98,SW,218,0.0,0.0,33,0.00,,,0.00,413,WeatherTracker,2013-02-06 19:30:00,
2013-02-06 14:35:00,58.0,28.3,29.98,SW,218,0.0,0.0,32,0.00,,,0.00,255,WeatherTracker,2013-02-06 19:35:00,
2013-02-06 14:40:00,58.2,27.7,29.98,SE,137,0.0,0.0,31,0.00,,,0.00,251,WeatherTracker,2013-02-06 19:40:00,
2013-02-06 14:45:00,58.3,27.8,29.98,ENE,61,2.0,0.0,31,0.00,,,0.00,225,WeatherTracker,2013-02-06 19:45:00,
2013-02-06 14:50:00,58.2,26.9,29.98,ENE,63,2.0,0.0,30,0.00,,,0.00,339,WeatherTracker,2013-02-06 19:50:00,
2013-02-06 14:55:00,58.0,27.5,29.98,ENE,60,0.0,0.0,31,0.00,,,0.00,265,WeatherTracker,2013-02-06 19:55:00,
2013-02-06 15:00:00,58.0,27.5,29.98,South,178,3.0,0.0,31,0.00,,,0.00,248,WeatherTracker,2013-02-06 20:00:00,
2013-02-06 15:05:00,57.7,26.5,29.98,South,188,1.0,0.0,30,0.00,,,0.00,37,WeatherTracker,2013-02-06 20:05:00,
2013-02-06 15:10:00,57.5,27.9,29.98,ENE,69,1.0,0.0,32,0.00,,,0.00,44,WeatherTracker,2013-02-06 20:10:00,
2013-02-06 15:15:00,57.6,29.4,29.98,North,5,2.0,0.0,34,0.00,,,0.00,176,WeatherTracker,2013-02-06 20:15:00,
2013-02-06 15:20:00,57.4,30.0,29.98,ENE,67,2.0,0.0,35,0.00,,,0.00,51,WeatherTracker,2013-02-06 20:20:00,
2013-02-06 15:25:00,57.0,29.6,29.98,ESE,103,2.0,0.0,35,0.00,,,0.00,62,WeatherTracker,2013-02-06 20:25:00,
2013-02-06 15:30:00,56.8,30.1,29.98,NW,307,3.0,0.0,36,0.00,,,0.00,40,WeatherTracker,2013-02-06 20:30:00,
2013-02-06 15:35:00,56.5,31.2,29.98,NW,319,5.0,0.0,38,0.00,,,0.00,39,WeatherTracker,2013-02-06 20:35:00,
2013-02-06 15:41:00,56.2,30.9,29.98,East,87,2.0,0.0,38,0.00,,,0.00,28,WeatherTracker,2013-02-06 20:41:00,
2013-02-06 15:46:00,55.9,30.7,29.98,NW,320,3.0,0.0,38,0.00,,,0.00,28,WeatherTracker,2013-02-06 20:46:00,
2013-02-06 15:51:00,55.5,30.3,29.99,NNW,333,1.0,0.0,38,0.00,,,0.00,28,WeatherTracker,2013-02-06 20:51:00,
2013-02-06 15:56:00,55.4,30.2,29.99,West,270,1.0,0.0,38,0.00,,,0.00,26,WeatherTracker,2013-02-06 20:56:00,
2013-02-06 16:01:00,55.3,30.1,29.99,ENE,75,2.0,0.0,38,0.00,,,0.00,26,WeatherTracker,2013-02-06 21:01:00,
2013-02-06 16:06:00,55.2,30.7,29.99,NNE,26,2.0,0.0,39,0.00,,,0.00,25,WeatherTracker,2013-02-06 21:06:00,
2013-02-06 16:11:00,55.0,29.9,29.99,ENE,60,0.0,0.0,38,0.00,,,0.00,25,WeatherTracker,2013-02-06 21:11:00,
2013-02-06 16:16:00,54.9,29.8,29.99,WNW,288,3.0,0.0,38,0.00,,,0.00,25,WeatherTracker,2013-02-06 21:16:00,
2013-02-06 16:21:00,54.8,29.0,29.99,WNW,303,0.0,0.0,37,0.00,,,0.00,23,WeatherTracker,2013-02-06 21:21:00,
2013-02-06 16:26:00,54.8,29.0,29.99,North,360,3.0,0.0,37,0.00,,,0.00,23,WeatherTracker,2013-02-06 21:26:00,
2013-02-06 16:31:00,54.7,29.6,30.00,North,5,1.0,0.0,38,0.00,,,0.00,21,WeatherTracker,2013-02-06 21:31:00,
2013-02-06 16:36:00,54.6,29.5,30.00,North,5,0.0,0.0,38,0.00,,,0.00,21,WeatherTracker,2013-02-06 21:36:00,
2013-02-06 16:41:00,54.4,29.3,30.00,ENE,63,0.0,0.0,38,0.00,,,0.00,19,WeatherTracker,2013-02-06 21:41:00,
2013-02-06 16:46:00,54.2,28.5,30.00,NW,325,3.0,0.0,37,0.00,,,0.00,19,WeatherTracker,2013-02-06 21:46:00,
2013-02-06 16:51:00,54.1,28.4,30.00,NNE,23,0.0,0.0,37,0.00,,,0.00,18,WeatherTracker,2013-02-06 21:51:00,
2013-02-06 16:56:00,53.9,28.9,30.00,North,11,2.0,0.0,38,0.00,,,0.00,18,WeatherTracker,2013-02-06 21:56:00,
2013-02-06 17:01:00,53.7,28.1,30.00,NW,313,0.0,0.0,37,0.00,,,0.00,16,WeatherTracker,2013-02-06 22:01:00,
2013-02-06 17:06:00,53.6,28.6,30.00,West,270,3.0,0.0,38,0.00,,,0.00,16,WeatherTracker,2013-02-06 22:06:00,
2013-02-06 17:11:00,53.4,27.8,30.01,WNW,298,0.0,0.0,37,0.00,,,0.00,14,WeatherTracker,2013-02-06 22:11:00,
2013-02-06 17:17:00,53.2,27.6,30.01,WNW,298,0.0,0.0,37,0.00,,,0.00,12,WeatherTracker,2013-02-06 22:17:00,
2013-02-06 17:22:00,52.8,28.5,30.01,WNW,298,0.0,0.0,39,0.00,,,0.00,12,WeatherTracker,2013-02-06 22:22:00,
2013-02-06 17:27:00,52.4,27.5,30.01,WNW,298,0.0,0.0,38,0.00,,,0.00,12,WeatherTracker,2013-02-06 22:27:00,
2013-02-06 17:32:00,51.9,28.3,30.01,WNW,298,0.0,0.0,40,0.00,,,0.00,11,WeatherTracker,2013-02-06 22:32:00,
2013-02-06 17:37:00,51.5,28.6,30.01,WNW,298,0.0,0.0,41,0.00,,,0.00,11,WeatherTracker,2013-02-06 22:37:00,
2013-02-06 17:42:00,51.2,28.3,30.01,WNW,298,0.0,0.0,41,0.00,,,0.00,7,WeatherTracker,2013-02-06 22:42:00,
2013-02-06 17:47:00,50.6,27.8,30.00,WNW,298,0.0,0.0,41,0.00,,,0.00,7,WeatherTracker,2013-02-06 22:47:00,
2013-02-06 17:52:00,50.1,27.9,30.00,WNW,298,0.0,0.0,42,0.00,,,0.00,5,WeatherTracker,2013-02-06 22:52:00,
2013-02-06 17:57:00,49.6,27.5,30.00,WNW,298,0.0,0.0,42,0.00,,,0.00,0,WeatherTracker,2013-02-06 22:57:00,
2013-02-06 18:02:00,49.1,27.6,30.01,WNW,298,0.0,0.0,43,0.00,,,0.00,0,WeatherTracker,2013-02-06 23:02:00,
2013-02-06 18:07:00,48.5,27.6,30.01,WNW,298,0.0,0.0,44,0.00,,,0.00,0,WeatherTracker,2013-02-06 23:07:00,
2013-02-06 18:12:00,48.1,27.8,30.01,WNW,298,0.0,0.0,45,0.00,,,0.00,0,WeatherTracker,2013-02-06 23:12:00,
2013-02-06 18:17:00,47.8,27.5,30.01,WNW,298,0.0,0.0,45,0.00,,,0.00,0,WeatherTracker,2013-02-06 23:17:00,
2013-02-06 18:22:00,47.4,27.1,30.02,WNW,298,0.0,0.0,45,0.00,,,0.00,0,WeatherTracker,2013-02-06 23:22:00,
2013-02-06 18:27:00,46.8,27.1,30.02,WNW,298,0.0,0.0,46,0.00,,,0.00,0,WeatherTracker,2013-02-06 23:27:00,
2013-02-06 18:32:00,46.2,27.6,30.03,WNW,298,0.0,0.0,48,0.00,,,0.00,0,WeatherTracker,2013-02-06 23:32:00,
2013-02-06 18:37:00,45.8,27.2,30.03,WNW,298,0.0,0.0,48,0.00,,,0.00,0,WeatherTracker,2013-02-06 23:37:00,
2013-02-06 18:42:00,45.5,26.5,30.03,WNW,298,0.0,0.0,47,0.00,,,0.00,0,WeatherTracker,2013-02-06 23:42:00,
2013-02-06 18:47:00,45.1,26.6,30.03,WNW,298,0.0,0.0,48,0.00,,,0.00,0,WeatherTracker,2013-02-06 23:47:00,
2013-02-06 18:52:00,44.9,27.4,30.03,WNW,298,0.0,0.0,50,0.00,,,0.00,0,WeatherTracker,2013-02-06 23:52:00,
2013-02-06 18:57:00,44.6,26.1,30.03,WNW,298,0.0,0.0,48,0.00,,,0.00,0,WeatherTracker,2013-02-06 23:57:00,
2013-02-06 19:02:00,44.3,26.4,30.03,WNW,298,0.0,0.0,49,0.00,,,0.00,0,WeatherTracker,2013-02-07 00:02:00,
2013-02-06 19:08:00,44.0,26.6,30.03,WNW,298,0.0,0.0,50,0.00,,,0.00,0,WeatherTracker,2013-02-07 00:08:00,
2013-02-06 19:13:00,44.0,26.1,30.04,WNW,298,0.0,0.0,49,0.00,,,0.00,0,WeatherTracker,2013-02-07 00:13:00,
2013-02-06 19:18:00,43.8,26.4,30.04,WNW,298,0.0,0.0,50,0.00,,,0.00,0,WeatherTracker,2013-02-07 00:18:00,
2013-02-06 19:23:00,43.6,26.2,30.03,WNW,298,0.0,0.0,50,0.00,,,0.00,0,WeatherTracker,2013-02-07 00:23:00,
2013-02-06 19:28:00,43.4,25.5,30.03,WNW,298,0.0,0.0,49,0.00,,,0.00,0,WeatherTracker,2013-02-07 00:28:00,
2013-02-06 19:33:00,43.1,25.3,30.03,WNW,298,0.0,0.0,49,0.00,,,0.00,0,WeatherTracker,2013-02-07 00:33:00,
2013-02-06 19:38:00,42.9,25.6,30.03,WNW,298,0.0,0.0,50,0.00,,,0.00,0,WeatherTracker,2013-02-07 00:38:00,
2013-02-06 19:43:00,42.8,25.9,30.03,WNW,298,0.0,0.0,51,0.00,,,0.00,0,WeatherTracker,2013-02-07 00:43:00,
2013-02-06 19:48:00,42.5,25.2,30.03,WNW,298,0.0,0.0,50,0.00,,,0.00,0,WeatherTracker,2013-02-07 00:48:00,
2013-02-06 19:53:00,42.4,25.1,30.03,WNW,298,0.0,0.0,50,0.00,,,0.00,0,WeatherTracker,2013-02-07 00:53:00,
2013-02-06 19:58:00,42.3,25.9,30.03,WNW,298,0.0,0.0,52,0.00,,,0.00,0,WeatherTracker,2013-02-07 00:58:00,
2013-02-06 20:03:00,42.2,25.9,30.03,WNW,298,0.0,0.0,52,0.00,,,0.00,0,WeatherTracker,2013-02-07 01:03:00,
2013-02-06 20:08:00,41.9,25.6,30.03,WNW,298,0.0,0.0,52,0.00,,,0.00,0,WeatherTracker,2013-02-07 01:08:00,
2013-02-06 20:13:00,41.8,25.9,30.03,WNW,298,0.0,0.0,53,0.00,,,0.00,0,WeatherTracker,2013-02-07 01:13:00,
2013-02-06 20:18:00,41.6,25.3,30.03,WNW,298,0.0,0.0,52,0.00,,,0.00,0,WeatherTracker,2013-02-07 01:18:00,
2013-02-06 20:23:00,41.6,25.3,30.04,WNW,298,0.0,0.0,52,0.00,,,0.00,0,WeatherTracker,2013-02-07 01:23:00,
2013-02-06 20:28:00,41.5,26.1,30.04,WNW,298,0.0,0.0,54,0.00,,,0.00,0,WeatherTracker,2013-02-07 01:28:00,
2013-02-06 20:33:00,41.4,26.0,30.04,WNW,298,0.0,0.0,54,0.00,,,0.00,0,WeatherTracker,2013-02-07 01:33:00,
2013-02-06 20:39:00,41.2,25.4,30.04,WNW,298,0.0,0.0,53,0.00,,,0.00,0,WeatherTracker,2013-02-07 01:39:00,
2013-02-06 20:44:00,41.2,25.4,30.04,WNW,298,0.0,0.0,53,0.00,,,0.00,0,WeatherTracker,2013-02-07 01:44:00,
2013-02-06 20:49:00,41.1,25.3,30.05,WNW,298,0.0,0.0,53,0.00,,,0.00,0,WeatherTracker,2013-02-07 01:49:00,
2013-02-06 20:54:00,41.1,25.3,30.04,WNW,298,0.0,0.0,53,0.00,,,0.00,0,WeatherTracker,2013-02-07 01:54:00,
2013-02-06 20:59:00,41.0,25.6,30.05,WNW,296,0.0,0.0,54,0.00,,,0.00,0,WeatherTracker,2013-02-07 01:59:00,
2013-02-06 21:04:00,40.8,25.5,30.05,WNW,296,0.0,0.0,54,0.00,,,0.00,0,WeatherTracker,2013-02-07 02:04:00,
2013-02-06 21:09:00,40.8,25.5,30.06,WNW,296,0.0,0.0,54,0.00,,,0.00,0,WeatherTracker,2013-02-07 02:09:00,
2013-02-06 21:14:00,40.6,25.3,30.06,WNW,296,0.0,0.0,54,0.00,,,0.00,0,WeatherTracker,2013-02-07 02:14:00,
2013-02-06 21:19:00,40.5,25.2,30.07,WNW,296,0.0,0.0,54,0.00,,,0.00,0,WeatherTracker,2013-02-07 02:19:00,
2013-02-06 21:24:00,40.3,25.4,30.08,WNW,296,1.0,0.0,55,0.00,,,0.00,0,WeatherTracker,2013-02-07 02:24:00,
2013-02-06 21:29:00,40.5,26.1,30.08,WNW,296,0.0,0.0,56,0.00,,,0.00,0,WeatherTracker,2013-02-07 02:29:00,
2013-02-06 21:34:00,40.5,25.2,30.07,WNW,296,0.0,0.0,54,0.00,,,0.00,0,WeatherTracker,2013-02-07 02:34:00,
2013-02-06 21:39:00,40.3,26.7,30.07,WNW,296,0.0,0.0,58,0.00,,,0.00,0,WeatherTracker,2013-02-07 02:39:00,
2013-02-06 21:44:00,39.9,24.2,30.07,WNW,296,0.0,0.0,53,0.00,,,0.00,0,WeatherTracker,2013-02-07 02:44:00,
2013-02-06 21:49:00,40.0,25.6,30.08,WNW,296,0.0,0.0,56,0.00,,,0.00,0,WeatherTracker,2013-02-07 02:49:00,
2013-02-06 21:55:00,39.9,25.5,30.08,WNW,296,0.0,0.0,56,0.00,,,0.00,0,WeatherTracker,2013-02-07 02:55:00,
2013-02-06 22:00:00,39.7,25.7,30.08,WNW,296,0.0,0.0,57,0.00,,,0.00,0,WeatherTracker,2013-02-07 03:00:00,
2013-02-06 22:05:00,39.5,25.1,30.08,WNW,296,0.0,0.0,56,0.00,,,0.00,0,WeatherTracker,2013-02-07 03:05:00,
2013-02-06 22:10:00,39.4,24.6,30.08,WNW,296,0.0,0.0,55,0.00,,,0.00,0,WeatherTracker,2013-02-07 03:10:00,
2013-02-06 22:15:00,39.3,25.8,30.08,WNW,296,0.0,0.0,58,0.00,,,0.00,0,WeatherTracker,2013-02-07 03:15:00,
2013-02-06 22:20:00,39.0,25.1,30.08,WNW,296,0.0,0.0,57,0.00,,,0.00,0,WeatherTracker,2013-02-07 03:20:00,
2013-02-06 22:25:00,38.7,25.6,30.07,WNW,296,0.0,0.0,59,0.00,,,0.00,0,WeatherTracker,2013-02-07 03:25:00,
2013-02-06 22:30:00,38.6,25.1,30.07,WNW,296,0.0,0.0,58,0.00,,,0.00,0,WeatherTracker,2013-02-07 03:30:00,
2013-02-06 22:35:00,38.6,25.9,30.07,WNW,296,0.0,0.0,60,0.00,,,0.00,0,WeatherTracker,2013-02-07 03:35:00,
2013-02-06 22:40:00,38.4,26.1,30.07,WNW,296,0.0,0.0,61,0.00,,,0.00,0,WeatherTracker,2013-02-07 03:40:00,
2013-02-06 22:45:00,38.3,25.6,30.07,WNW,296,0.0,0.0,60,0.00,,,0.00,0,WeatherTracker,2013-02-07 03:45:00,
2013-02-06 22:50:00,38.1,26.2,30.07,WNW,296,0.0,0.0,62,0.00,,,0.00,0,WeatherTracker,2013-02-07 03:50:00,
2013-02-06 22:55:00,37.9,25.7,30.07,WNW,296,0.0,0.0,61,0.00,,,0.00,0,WeatherTracker,2013-02-07 03:55:00,
2013-02-06 23:00:00,37.9,25.3,30.07,WNW,296,0.0,0.0,60,0.00,,,0.00,0,WeatherTracker,2013-02-07 04:00:00,
2013-02-06 23:05:00,37.8,25.6,30.07,WNW,296,0.0,0.0,61,0.00,,,0.00,0,WeatherTracker,2013-02-07 04:05:00,
2013-02-06 23:10:00,37.8,24.8,30.07,WNW,296,0.0,0.0,59,0.00,,,0.00,0,WeatherTracker,2013-02-07 04:10:00,
2013-02-06 23:15:00,37.9,25.7,30.07,WNW,296,0.0,0.0,61,0.00,,,0.00,0,WeatherTracker,2013-02-07 04:15:00,
2013-02-06 23:20:00,38.0,25.8,30.07,WNW,296,0.0,0.0,61,0.00,,,0.00,0,WeatherTracker,2013-02-07 04:20:00,
2013-02-06 23:25:00,38.0,25.8,30.07,WNW,296,0.0,0.0,61,0.00,,,0.00,0,WeatherTracker,2013-02-07 04:25:00,
2013-02-06 23:30:00,37.8,25.2,30.06,WNW,296,0.0,0.0,60,0.00,,,0.00,0,WeatherTracker,2013-02-07 04:30:00,
2013-02-06 23:35:00,37.7,24.7,30.07,WNW,296,0.0,0.0,59,0.00,,,0.00,0,WeatherTracker,2013-02-07 04:35:00,
2013-02-06 23:41:00,37.8,24.8,30.07,WNW,296,0.0,0.0,59,0.00,,,0.00,0,WeatherTracker,2013-02-07 04:41:00,
2013-02-06 23:46:00,37.7,25.1,30.07,WNW,296,0.0,0.0,60,0.00,,,0.00,0,WeatherTracker,2013-02-07 04:46:00,
2013-02-06 23:51:00,37.6,25.0,30.07,WNW,296,0.0,0.0,60,0.00,,,0.00,0,WeatherTracker,2013-02-07 04:51:00,
2013-02-06 23:56:00,37.3,25.9,30.07,WNW,296,0.0,0.0,63,0.00,,,0.00,0,WeatherTracker,2013-02-07 04:56:00,